• Join FlightAware (Why Join?)
  • Login
  • US Flag 
05:23AM EDT


 

Airport Tracker/Info


-or-


 

Live Flight TrackerFlight Track Log ✈ CTL22 ✈ 21-May-2013 ✈ KBKL - KGRR

Flight Track Log - Related Links

Times and Time Zones

All times are in EDT time to prevent confusion due to time zone crossing. See the CTL22 flight status page for this flight to view local times or setup timezone preferences in your user account.

Time Position Orientation Groundspeed Altitude Reporting Facility
EDT Latitude Longitude Course Direction KTS MPH feet Rate Location/Type
09:31PM 41.5519 -81.7153 337° Northwest 132 152 2,000  Level Cleveland Center
09:32PM 41.5894 -81.7408 333° Northwest 179 206 2,000 360 Level Cleveland Center
09:33PM 41.6222 -81.7719 325° Northwest 156 180 2,700 780 Climbing Cleveland Center
09:34PM 41.6556 -81.7892 339° North 150 173 3,500 720 Climbing Cleveland Center
09:35PM 41.6950 -81.8094 339° North 150 173 4,200 780 Climbing Cleveland Center
09:36PM 41.7258 -81.8406 323° Northwest 145 167 5,100 780 Climbing Cleveland Center
09:37PM 41.7400 -81.8856 293° West 131 151 5,800 420 Climbing Cleveland Center
09:38PM 41.7581 -81.9303 298° West 137 158 6,000 60 Climbing Cleveland Center
09:39PM 41.7806 -81.9836 300° West 149 171 6,000  Level Cleveland Center
09:40PM 41.8028 -82.0344 300° West 161 185 6,000  Level Cleveland Center
09:41PM 41.8250 -82.0878 299° West 166 191 6,100  Climbing Cleveland Center
09:42PM 41.8450 -82.1414 297° West 166 191 6,000  Descending Cleveland Center
09:43PM 41.8631 -82.1947 312° West 166 191 6,100  Climbing Cleveland Center
09:44PM 41.8875 -82.2483 301° West 161 185 6,100 -60 Level Cleveland Center
09:45PM 41.9094 -82.2992 300° West 161 185 6,000 -120 Descending Cleveland Center
09:46PM 41.9339 -82.3500 303° West 161 185 5,900  Descending Cleveland Center
09:47PM 41.9558 -82.4008 300° West 161 185 6,000  Climbing Cleveland Center
09:48PM 41.9761 -82.4517 298° West 161 185 6,000  Level Cleveland Center
09:49PM 41.9981 -82.5025 300° West 161 185 6,000  Level Cleveland Center
09:50PM 42.0203 -82.5508 302° West 163 188 6,000  Level Cleveland Center
09:51PM 42.0403 -82.6017 298° West 160 184 6,000  Level Cleveland Center
09:53PM 42.0842 -82.7067 299° West 161 185 6,000  Level Cleveland Center
09:54PM 42.1039 -82.7578 297° West 162 186 6,000  Level Cleveland Center
09:55PM 42.1300 -82.8119 303° West 166 191 6,000 -60 Level Cleveland Center
09:56PM 42.1497 -82.8686 295° West 165 190 5,900  Descending Cleveland Center
09:57PM 42.1717 -82.9281 296° West 155 178 6,000  Climbing Cleveland Center
09:58PM 42.1872 -82.9736 295° West 154 177 6,000  Level Cleveland Center
09:59PM 42.2028 -83.0303 290° West 157 181 6,000  Level Cleveland Center
10:00PM 42.2225 -83.0842 296° West 164 189 6,000  Level Cleveland Center
10:01PM 42.2400 -83.1383 294° West 164 189 6,000  Level Cleveland Center
10:02PM 42.2556 -83.1950 290° West 163 188 6,000  Level Cleveland Center
10:03PM 42.2728 -83.2519 292° West 161 185 6,000  Level Cleveland Center
10:04PM 42.2925 -83.3031 298° West 163 188 6,000  Level Cleveland Center
10:05PM 42.3058 -83.3544 289° West 163 188 6,000 -60 Level Cleveland Center
10:06PM 42.3311 -83.4342 293° West 160 184 5,900  Descending Cleveland Center
10:07PM 42.3444 -83.4825 290° West 148 170 6,000  Climbing Cleveland Center
10:08PM 42.3597 -83.5367 291° West 152 175 6,000  Level Cleveland Center
10:09PM 42.3769 -83.5964 291° West 152 175 6,000  Level Cleveland Center
10:10PM 42.3864 -83.6306 291° West 155 178 6,000  Level Cleveland Center
10:11PM 42.4014 -83.6931 288° West 157 181 6,000  Level Cleveland Center
10:12PM 42.4186 -83.7475 293° West 157 181 6,000  Level Cleveland Center
10:13PM 42.4358 -83.8075 291° West 157 181 6,000  Level Cleveland Center
10:14PM 42.4508 -83.8672 289° West 150 173 6,000  Level Cleveland Center
10:15PM 42.4661 -83.9189 292° West 152 175 6,000 -60 Level Cleveland Center
10:16PM 42.4811 -83.9731 291° West 152 175 5,900  Descending Cleveland Center
10:17PM 42.4981 -84.0331 291° West 154 177 6,000  Climbing Cleveland Center
10:18PM 42.5153 -84.0875 293° West 156 180 5,900  Descending Cleveland Center
10:19PM 42.5344 -84.1367 298° West 154 177 6,000  Climbing Cleveland Center
10:20PM 42.5497 -84.1883 292° West 155 178 6,000 -60 Level Cleveland Center
10:21PM 42.5644 -84.2456 289° West 158 182 5,900 -60 Descending Cleveland Center
10:22PM 42.5794 -84.2972 292° West 153 176 5,900  Level Cleveland Center
10:23PM 42.5944 -84.3517 291° West 152 175 5,900  Level Cleveland Center
10:24PM 42.6094 -84.4033 292° West 161 185 6,000 60 Climbing Cleveland Center
10:25PM 42.6119 -84.4119 292° West 152 175 6,000  Level Chicago Center
10:26PM 42.6303 -84.4769 291° West 155 178 6,000  Level Chicago Center
10:27PM 42.6439 -84.5300 289° West 151 174 6,000  Level Chicago Center
10:28PM 42.6583 -84.5861 289° West 156 180 6,000  Level Chicago Center
10:29PM 42.6706 -84.6400 287° West 151 174 6,000  Level Chicago Center
10:30PM 42.6836 -84.6936 288° West 150 173 6,000  Level Chicago Center
10:31PM 42.6956 -84.7481 287° West 151 174 6,000  Level Chicago Center
10:32PM 42.7106 -84.8033 290° West 154 177 6,000  Level Chicago Center
10:33PM 42.7236 -84.8578 288° West 154 177 6,000  Level Chicago Center
10:34PM 42.7364 -84.9117 288° West 151 174 6,000  Level Chicago Center
10:35PM 42.7536 -84.9783 289° West 155 178 6,000  Level Chicago Center
10:36PM 42.7667 -85.0322 288° West 153 176 6,000 -120 Level Chicago Center
10:37PM 42.7819 -85.0872 291° West 154 177 5,800 -540 Descending Chicago Center
10:38PM 42.7972 -85.1486 289° West 167 192 4,900 -840 Descending Chicago Center
10:40PM 42.8286 -85.2733 289° West 174 200 3,300 -840 Descending Chicago Center
10:41PM 42.8453 -85.3347 290° West 174 200 2,500 -600 Descending Chicago Center
10:42PM 42.8581 -85.3894 288° West 163 188 2,200 -420 Descending Chicago Center
10:43PM 42.8697 -85.4364 289° West 147 169 1,700 -540 Descending Chicago Center
10:44PM 42.8786 -85.4833 285° West 135 155 1,200 -360 Descending Chicago Center
10:45PM 42.8839 -85.5267 279° West 125 144 1,000 -240 Descending Chicago Center
10:47PM 42.8808 -85.5228 270° West  Level Estimated
10:54PM 42.8808 -85.5228 270° West  Level Estimated
10:55PM 42.8808 -85.5228 270° West  Level Estimated
10:56PM 42.8808 -85.5228 270° West  Level Estimated
10:57PM 42.8808 -85.5228 270° West  Level Estimated
10:58PM 42.8808 -85.5228 270° West  Level Estimated
10:59PM 42.8808 -85.5228 270° West  Level Estimated
11:00PM 42.8808 -85.5228 270° West  Level Estimated
11:01PM 42.8808 -85.5228 270° West  Level Estimated
11:02PM 42.8808 -85.5228 270° West  Level Estimated
11:03PM 42.8808 -85.5228 270° West  Level Estimated